sensor_id;sensor_type;location;lat;lon;timestamp;temperature;humidity
8979;DHT22;4524;51.364;5.448;2022-07-05T00:01:45;16.20;31.20
8979;DHT22;4524;51.364;5.448;2022-07-05T00:04:13;16.10;38.60
8979;DHT22;4524;51.364;5.448;2022-07-05T00:06:42;16.10;34.60
8979;DHT22;4524;51.364;5.448;2022-07-05T00:09:24;16.00;41.50
8979;DHT22;4524;51.364;5.448;2022-07-05T00:11:52;16.00;46.20
8979;DHT22;4524;51.364;5.448;2022-07-05T00:14:20;15.90;48.70
8979;DHT22;4524;51.364;5.448;2022-07-05T00:16:48;15.90;49.10
8979;DHT22;4524;51.364;5.448;2022-07-05T00:19:16;15.90;43.50
8979;DHT22;4524;51.364;5.448;2022-07-05T00:21:45;15.80;40.50
8979;DHT22;4524;51.364;5.448;2022-07-05T00:24:13;15.80;41.50
8979;DHT22;4524;51.364;5.448;2022-07-05T00:26:41;15.80;49.20
8979;DHT22;4524;51.364;5.448;2022-07-05T00:29:09;15.80;58.20
8979;DHT22;4524;51.364;5.448;2022-07-05T00:31:37;15.70;62.10
8979;DHT22;4524;51.364;5.448;2022-07-05T00:34:05;15.70;63.30
8979;DHT22;4524;51.364;5.448;2022-07-05T00:36:33;15.60;65.30
8979;DHT22;4524;51.364;5.448;2022-07-05T00:39:03;15.50;70.70
8979;DHT22;4524;51.364;5.448;2022-07-05T00:41:31;15.50;64.40
8979;DHT22;4524;51.364;5.448;2022-07-05T00:44:01;15.50;64.20
8979;DHT22;4524;51.364;5.448;2022-07-05T00:46:30;15.40;74.70
8979;DHT22;4524;51.364;5.448;2022-07-05T00:48:59;15.40;73.90
8979;DHT22;4524;51.364;5.448;2022-07-05T00:51:31;15.30;80.30
8979;DHT22;4524;51.364;5.448;2022-07-05T00:54:00;15.30;82.40
8979;DHT22;4524;51.364;5.448;2022-07-05T00:56:29;15.20;79.50
8979;DHT22;4524;51.364;5.448;2022-07-05T00:58:57;15.10;88.10
8979;DHT22;4524;51.364;5.448;2022-07-05T01:01:26;15.00;87.40
8979;DHT22;4524;51.364;5.448;2022-07-05T01:03:55;15.00;85.90
8979;DHT22;4524;51.364;5.448;2022-07-05T01:06:24;14.90;94.60
8979;DHT22;4524;51.364;5.448;2022-07-05T01:08:52;14.90;94.60
8979;DHT22;4524;51.364;5.448;2022-07-05T01:11:20;14.90;93.40
8979;DHT22;4524;51.364;5.448;2022-07-05T01:13:49;14.90;95.70
8979;DHT22;4524;51.364;5.448;2022-07-05T01:16:17;14.80;97.00
8979;DHT22;4524;51.364;5.448;2022-07-05T01:18:46;14.80;99.90
8979;DHT22;4524;51.364;5.448;2022-07-05T01:21:15;14.80;91.70
8979;DHT22;4524;51.364;5.448;2022-07-05T01:23:48;14.80;97.80
8979;DHT22;4524;51.364;5.448;2022-07-05T01:26:17;14.70;99.90
8979;DHT22;4524;51.364;5.448;2022-07-05T01:28:45;14.70;99.90
8979;DHT22;4524;51.364;5.448;2022-07-05T01:31:13;14.70;99.60
8979;DHT22;4524;51.364;5.448;2022-07-05T01:33:42;14.70;99.90
8979;DHT22;4524;51.364;5.448;2022-07-05T01:36:11;14.60;99.90
8979;DHT22;4524;51.364;5.448;2022-07-05T01:38:39;14.70;96.90
8979;DHT22;4524;51.364;5.448;2022-07-05T01:41:09;14.70;97.10
8979;DHT22;4524;51.364;5.448;2022-07-05T01:43:37;14.70;99.60
8979;DHT22;4524;51.364;5.448;2022-07-05T01:46:05;14.50;99.90
8979;DHT22;4524;51.364;5.448;2022-07-05T01:48:37;14.50;99.90
8979;DHT22;4524;51.364;5.448;2022-07-05T01:51:09;14.50;99.90
8979;DHT22;4524;51.364;5.448;2022-07-05T01:53:43;14.40;99.90
8979;DHT22;4524;51.364;5.448;2022-07-05T01:56:13;14.20;99.90
8979;DHT22;4524;51.364;5.448;2022-07-05T01:58:41;14.10;99.90
8979;DHT22;4524;51.364;5.448;2022-07-05T02:01:10;14.20;99.90
8979;DHT22;4524;51.364;5.448;2022-07-05T02:03:39;14.10;99.90
8979;DHT22;4524;51.364;5.448;2022-07-05T02:06:24;14.20;99.90
8979;DHT22;4524;51.364;5.448;2022-07-05T02:08:53;14.00;99.90
8979;DHT22;4524;51.364;5.448;2022-07-05T02:11:22;14.10;99.90
8979;DHT22;4524;51.364;5.448;2022-07-05T02:13:50;14.00;99.90
8979;DHT22;4524;51.364;5.448;2022-07-05T02:16:22;14.00;99.90
8979;DHT22;4524;51.364;5.448;2022-07-05T02:18:50;13.90;99.90
8979;DHT22;4524;51.364;5.448;2022-07-05T02:21:18;13.90;99.90
8979;DHT22;4524;51.364;5.448;2022-07-05T02:23:49;13.80;99.90
8979;DHT22;4524;51.364;5.448;2022-07-05T02:26:17;13.80;99.90
8979;DHT22;4524;51.364;5.448;2022-07-05T02:28:49;13.80;99.90
8979;DHT22;4524;51.364;5.448;2022-07-05T02:31:18;13.80;99.90
8979;DHT22;4524;51.364;5.448;2022-07-05T02:33:50;13.90;99.90
8979;DHT22;4524;51.364;5.448;2022-07-05T02:36:20;14.00;99.90
8979;DHT22;4524;51.364;5.448;2022-07-05T02:38:49;13.90;99.90
8979;DHT22;4524;51.364;5.448;2022-07-05T02:41:18;14.00;99.90
8979;DHT22;4524;51.364;5.448;2022-07-05T02:43:51;13.90;99.90
8979;DHT22;4524;51.364;5.448;2022-07-05T02:46:25;13.90;99.90
8979;DHT22;4524;51.364;5.448;2022-07-05T02:48:55;13.90;99.90
8979;DHT22;4524;51.364;5.448;2022-07-05T02:51:28;13.90;99.90
8979;DHT22;4524;51.364;5.448;2022-07-05T02:53:57;13.80;99.90
8979;DHT22;4524;51.364;5.448;2022-07-05T02:56:25;13.90;99.90
8979;DHT22;4524;51.364;5.448;2022-07-05T02:58:55;14.00;99.90
8979;DHT22;4524;51.364;5.448;2022-07-05T03:01:25;14.00;99.90
8979;DHT22;4524;51.364;5.448;2022-07-05T03:03:59;13.90;99.90
8979;DHT22;4524;51.364;5.448;2022-07-05T03:06:29;13.70;99.90
8979;DHT22;4524;51.364;5.448;2022-07-05T03:08:58;13.70;99.90
8979;DHT22;4524;51.364;5.448;2022-07-05T03:11:26;13.50;99.90
8979;DHT22;4524;51.364;5.448;2022-07-05T03:13:56;13.40;99.90
8979;DHT22;4524;51.364;5.448;2022-07-05T03:16:24;13.30;99.90
8979;DHT22;4524;51.364;5.448;2022-07-05T03:18:52;13.30;99.90
8979;DHT22;4524;51.364;5.448;2022-07-05T03:21:21;13.30;99.90
8979;DHT22;4524;51.364;5.448;2022-07-05T03:23:49;13.30;99.90
8979;DHT22;4524;51.364;5.448;2022-07-05T03:26:17;13.20;99.90
8979;DHT22;4524;51.364;5.448;2022-07-05T03:28:47;13.20;99.90
8979;DHT22;4524;51.364;5.448;2022-07-05T03:31:16;13.30;99.90
8979;DHT22;4524;51.364;5.448;2022-07-05T03:33:45;13.40;99.90
8979;DHT22;4524;51.364;5.448;2022-07-05T03:36:14;13.40;99.90
8979;DHT22;4524;51.364;5.448;2022-07-05T03:38:43;13.40;99.90
8979;DHT22;4524;51.364;5.448;2022-07-05T03:41:12;13.50;99.90
8979;DHT22;4524;51.364;5.448;2022-07-05T03:43:40;13.50;99.90
8979;DHT22;4524;51.364;5.448;2022-07-05T03:46:08;13.50;99.90
8979;DHT22;4524;51.364;5.448;2022-07-05T03:48:40;13.50;99.90
8979;DHT22;4524;51.364;5.448;2022-07-05T03:51:11;13.50;99.90
8979;DHT22;4524;51.364;5.448;2022-07-05T03:53:39;13.50;99.90
8979;DHT22;4524;51.364;5.448;2022-07-05T03:56:08;13.60;99.90
8979;DHT22;4524;51.364;5.448;2022-07-05T03:58:36;13.60;99.90
8979;DHT22;4524;51.364;5.448;2022-07-05T04:01:06;13.70;99.90
8979;DHT22;4524;51.364;5.448;2022-07-05T04:03:34;13.70;99.90
8979;DHT22;4524;51.364;5.448;2022-07-05T04:06:10;13.70;99.90
8979;DHT22;4524;51.364;5.448;2022-07-05T04:08:38;13.70;99.90
8979;DHT22;4524;51.364;5.448;2022-07-05T04:11:06;13.80;99.90
8979;DHT22;4524;51.364;5.448;2022-07-05T04:13:37;13.80;99.90
8979;DHT22;4524;51.364;5.448;2022-07-05T04:16:05;13.80;99.90
8979;DHT22;4524;51.364;5.448;2022-07-05T04:18:33;13.70;99.90
8979;DHT22;4524;51.364;5.448;2022-07-05T04:21:03;13.60;99.90
8979;DHT22;4524;51.364;5.448;2022-07-05T04:23:32;13.50;99.90
8979;DHT22;4524;51.364;5.448;2022-07-05T04:26:02;13.40;99.90
8979;DHT22;4524;51.364;5.448;2022-07-05T04:28:37;13.40;99.90
8979;DHT22;4524;51.364;5.448;2022-07-05T04:31:08;13.40;99.90
8979;DHT22;4524;51.364;5.448;2022-07-05T04:33:40;13.50;99.90
8979;DHT22;4524;51.364;5.448;2022-07-05T04:36:11;13.80;99.90
8979;DHT22;4524;51.364;5.448;2022-07-05T04:38:41;14.00;99.90
8979;DHT22;4524;51.364;5.448;2022-07-05T04:41:09;14.10;99.90
8979;DHT22;4524;51.364;5.448;2022-07-05T04:43:38;14.00;99.90
8979;DHT22;4524;51.364;5.448;2022-07-05T04:46:10;14.10;99.90
8979;DHT22;4524;51.364;5.448;2022-07-05T04:48:38;14.10;99.90
8979;DHT22;4524;51.364;5.448;2022-07-05T04:51:08;14.20;99.90
8979;DHT22;4524;51.364;5.448;2022-07-05T04:53:36;14.30;99.90
8979;DHT22;4524;51.364;5.448;2022-07-05T04:56:05;14.30;99.90
8979;DHT22;4524;51.364;5.448;2022-07-05T04:58:34;14.10;99.90
8979;DHT22;4524;51.364;5.448;2022-07-05T05:01:02;14.10;99.90
8979;DHT22;4524;51.364;5.448;2022-07-05T05:03:29;14.10;99.90
8979;DHT22;4524;51.364;5.448;2022-07-05T05:05:57;14.10;99.90
8979;DHT22;4524;51.364;5.448;2022-07-05T05:08:25;14.20;99.90
8979;DHT22;4524;51.364;5.448;2022-07-05T05:10:53;14.20;99.90
8979;DHT22;4524;51.364;5.448;2022-07-05T05:13:22;14.50;99.90
8979;DHT22;4524;51.364;5.448;2022-07-05T05:15:50;14.90;99.90
8979;DHT22;4524;51.364;5.448;2022-07-05T05:18:18;17.40;35.10
8979;DHT22;4524;51.364;5.448;2022-07-05T05:20:50;17.50;3.10
8979;DHT22;4524;51.364;5.448;2022-07-05T05:23:18;17.60;4.20
8979;DHT22;4524;51.364;5.448;2022-07-05T05:25:46;16.70;15.60
8979;DHT22;4524;51.364;5.448;2022-07-05T05:28:14;16.20;29.00
8979;DHT22;4524;51.364;5.448;2022-07-05T05:30:44;15.80;53.60
8979;DHT22;4524;51.364;5.448;2022-07-05T05:33:12;15.80;59.00
8979;DHT22;4524;51.364;5.448;2022-07-05T05:35:40;15.80;65.10
8979;DHT22;4524;51.364;5.448;2022-07-05T05:38:07;15.70;70.90
8979;DHT22;4524;51.364;5.448;2022-07-05T05:40:35;15.80;77.50
8979;DHT22;4524;51.364;5.448;2022-07-05T05:43:04;15.90;83.80
8979;DHT22;4524;51.364;5.448;2022-07-05T05:45:32;16.00;81.70
8979;DHT22;4524;51.364;5.448;2022-07-05T05:48:02;16.20;79.30
8979;DHT22;4524;51.364;5.448;2022-07-05T05:50:31;16.50;78.90
8979;DHT22;4524;51.364;5.448;2022-07-05T05:53:00;16.50;77.40
8979;DHT22;4524;51.364;5.448;2022-07-05T05:55:29;16.60;70.60
8979;DHT22;4524;51.364;5.448;2022-07-05T05:57:57;16.70;67.80
8979;DHT22;4524;51.364;5.448;2022-07-05T06:00:37;16.80;65.20
8979;DHT22;4524;51.364;5.448;2022-07-05T06:03:07;16.90;64.00
8979;DHT22;4524;51.364;5.448;2022-07-05T06:05:35;17.00;65.10
8979;DHT22;4524;51.364;5.448;2022-07-05T06:08:03;17.10;57.90
8979;DHT22;4524;51.364;5.448;2022-07-05T06:10:33;17.30;59.40
8979;DHT22;4524;51.364;5.448;2022-07-05T06:13:04;17.40;51.70
8979;DHT22;4524;51.364;5.448;2022-07-05T06:15:31;17.50;41.10
8979;DHT22;4524;51.364;5.448;2022-07-05T06:17:59;17.50;46.90
8979;DHT22;4524;51.364;5.448;2022-07-05T06:20:31;17.70;36.50
8979;DHT22;4524;51.364;5.448;2022-07-05T06:23:00;17.80;41.30
8979;DHT22;4524;51.364;5.448;2022-07-05T06:25:29;17.90;45.60
8979;DHT22;4524;51.364;5.448;2022-07-05T06:27:58;18.00;36.30
8979;DHT22;4524;51.364;5.448;2022-07-05T06:30:29;18.00;32.60
8979;DHT22;4524;51.364;5.448;2022-07-05T06:32:57;18.10;24.70
8979;DHT22;4524;51.364;5.448;2022-07-05T06:35:26;18.10;21.00
8979;DHT22;4524;51.364;5.448;2022-07-05T06:37:58;18.10;21.40
8979;DHT22;4524;51.364;5.448;2022-07-05T06:40:28;18.10;24.00
8979;DHT22;4524;51.364;5.448;2022-07-05T06:42:58;18.10;25.60
8979;DHT22;4524;51.364;5.448;2022-07-05T06:45:36;18.20;18.60
8979;DHT22;4524;51.364;5.448;2022-07-05T06:48:06;18.20;14.80
8979;DHT22;4524;51.364;5.448;2022-07-05T06:50:36;18.20;11.50
8979;DHT22;4524;51.364;5.448;2022-07-05T06:53:06;18.40;12.20
8979;DHT22;4524;51.364;5.448;2022-07-05T06:55:34;18.50;9.30
8979;DHT22;4524;51.364;5.448;2022-07-05T06:58:03;18.60;6.10
8979;DHT22;4524;51.364;5.448;2022-07-05T07:00:40;18.70;1.00
8979;DHT22;4524;51.364;5.448;2022-07-05T07:03:28;18.80;1.00
8979;DHT22;4524;51.364;5.448;2022-07-05T07:06:16;18.60;1.00
8979;DHT22;4524;51.364;5.448;2022-07-05T07:08:46;18.50;5.50
8979;DHT22;4524;51.364;5.448;2022-07-05T07:11:31;18.60;8.20
8979;DHT22;4524;51.364;5.448;2022-07-05T07:13:59;18.50;12.20
8979;DHT22;4524;51.364;5.448;2022-07-05T07:16:27;18.50;16.30
8979;DHT22;4524;51.364;5.448;2022-07-05T07:18:55;18.60;20.20
8979;DHT22;4524;51.364;5.448;2022-07-05T07:21:37;18.70;17.70
8979;DHT22;4524;51.364;5.448;2022-07-05T07:24:08;18.70;20.80
8979;DHT22;4524;51.364;5.448;2022-07-05T07:26:36;18.80;14.90
8979;DHT22;4524;51.364;5.448;2022-07-05T07:29:18;19.10;17.30
8979;DHT22;4524;51.364;5.448;2022-07-05T07:31:46;19.40;9.70
8979;DHT22;4524;51.364;5.448;2022-07-05T07:34:13;19.70;6.50
8979;DHT22;4524;51.364;5.448;2022-07-05T07:36:42;20.00;1.00
8979;DHT22;4524;51.364;5.448;2022-07-05T07:39:11;20.20;1.00
8979;DHT22;4524;51.364;5.448;2022-07-05T07:41:39;20.40;1.00
8979;DHT22;4524;51.364;5.448;2022-07-05T07:44:07;20.50;1.00
8979;DHT22;4524;51.364;5.448;2022-07-05T07:46:35;20.60;1.00
8979;DHT22;4524;51.364;5.448;2022-07-05T07:49:06;20.80;1.00
8979;DHT22;4524;51.364;5.448;2022-07-05T07:51:34;20.90;1.00
8979;DHT22;4524;51.364;5.448;2022-07-05T07:54:02;20.90;1.00
8979;DHT22;4524;51.364;5.448;2022-07-05T07:56:39;21.00;1.00
8979;DHT22;4524;51.364;5.448;2022-07-05T07:59:07;21.00;1.00
8979;DHT22;4524;51.364;5.448;2022-07-05T08:01:35;21.00;1.00
8979;DHT22;4524;51.364;5.448;2022-07-05T08:04:11;21.00;1.00
8979;DHT22;4524;51.364;5.448;2022-07-05T08:06:40;21.10;1.00
8979;DHT22;4524;51.364;5.448;2022-07-05T08:09:08;21.30;1.00
8979;DHT22;4524;51.364;5.448;2022-07-05T08:11:44;21.30;1.00
8979;DHT22;4524;51.364;5.448;2022-07-05T08:14:12;21.40;1.00
8979;DHT22;4524;51.364;5.448;2022-07-05T08:16:40;21.40;1.00
8979;DHT22;4524;51.364;5.448;2022-07-05T08:19:16;21.50;1.00
8979;DHT22;4524;51.364;5.448;2022-07-05T08:22:01;21.70;1.00
8979;DHT22;4524;51.364;5.448;2022-07-05T08:24:29;21.70;1.00
8979;DHT22;4524;51.364;5.448;2022-07-05T08:26:58;21.80;1.00
8979;DHT22;4524;51.364;5.448;2022-07-05T08:29:26;22.00;1.00
8979;DHT22;4524;51.364;5.448;2022-07-05T08:31:54;22.00;1.00
8979;DHT22;4524;51.364;5.448;2022-07-05T08:34:22;22.10;1.00
8979;DHT22;4524;51.364;5.448;2022-07-05T08:36:50;22.00;1.00
8979;DHT22;4524;51.364;5.448;2022-07-05T08:39:18;22.00;1.00
8979;DHT22;4524;51.364;5.448;2022-07-05T08:41:48;22.10;1.00
8979;DHT22;4524;51.364;5.448;2022-07-05T08:44:19;22.10;1.00
8979;DHT22;4524;51.364;5.448;2022-07-05T08:46:49;22.00;1.00
8979;DHT22;4524;51.364;5.448;2022-07-05T08:49:21;22.20;1.00
8979;DHT22;4524;51.364;5.448;2022-07-05T08:51:50;22.20;1.00
8979;DHT22;4524;51.364;5.448;2022-07-05T08:54:19;22.40;1.00
8979;DHT22;4524;51.364;5.448;2022-07-05T08:56:47;22.50;1.00
8979;DHT22;4524;51.364;5.448;2022-07-05T08:59:36;22.50;1.00
8979;DHT22;4524;51.364;5.448;2022-07-05T09:02:05;22.50;1.00
8979;DHT22;4524;51.364;5.448;2022-07-05T09:04:43;22.40;1.00
8979;DHT22;4524;51.364;5.448;2022-07-05T09:07:16;22.40;1.00
8979;DHT22;4524;51.364;5.448;2022-07-05T09:09:47;22.40;1.00
8979;DHT22;4524;51.364;5.448;2022-07-05T09:12:17;22.10;1.00
8979;DHT22;4524;51.364;5.448;2022-07-05T09:14:53;21.80;1.00
8979;DHT22;4524;51.364;5.448;2022-07-05T09:17:22;21.80;1.00
8979;DHT22;4524;51.364;5.448;2022-07-05T09:20:07;21.70;1.00
8979;DHT22;4524;51.364;5.448;2022-07-05T09:22:45;22.20;1.00
8979;DHT22;4524;51.364;5.448;2022-07-05T09:25:19;22.40;1.00
8979;DHT22;4524;51.364;5.448;2022-07-05T09:27:52;22.70;1.00
8979;DHT22;4524;51.364;5.448;2022-07-05T09:30:26;22.70;1.00
8979;DHT22;4524;51.364;5.448;2022-07-05T09:33:07;23.00;1.00
8979;DHT22;4524;51.364;5.448;2022-07-05T09:35:36;23.10;1.00
8979;DHT22;4524;51.364;5.448;2022-07-05T09:38:05;23.00;1.00
8979;DHT22;4524;51.364;5.448;2022-07-05T09:40:45;22.80;1.00
8979;DHT22;4524;51.364;5.448;2022-07-05T09:43:15;22.60;1.00
8979;DHT22;4524;51.364;5.448;2022-07-05T09:45:58;22.40;1.00
8979;DHT22;4524;51.364;5.448;2022-07-05T09:48:27;22.30;1.00
8979;DHT22;4524;51.364;5.448;2022-07-05T09:51:07;22.00;1.00
8979;DHT22;4524;51.364;5.448;2022-07-05T09:53:57;21.80;1.00
8979;DHT22;4524;51.364;5.448;2022-07-05T09:56:29;21.80;1.00
8979;DHT22;4524;51.364;5.448;2022-07-05T09:59:15;21.80;1.00
8979;DHT22;4524;51.364;5.448;2022-07-05T10:01:46;21.70;1.00
8979;DHT22;4524;51.364;5.448;2022-07-05T10:04:15;22.00;1.00
8979;DHT22;4524;51.364;5.448;2022-07-05T10:06:44;22.40;1.00
8979;DHT22;4524;51.364;5.448;2022-07-05T10:09:12;22.40;1.00
8979;DHT22;4524;51.364;5.448;2022-07-05T10:11:43;22.50;1.00
8979;DHT22;4524;51.364;5.448;2022-07-05T10:14:15;22.60;1.00
8979;DHT22;4524;51.364;5.448;2022-07-05T10:16:56;22.70;1.00
8979;DHT22;4524;51.364;5.448;2022-07-05T10:19:31;22.80;1.00
8979;DHT22;4524;51.364;5.448;2022-07-05T10:22:01;23.20;1.00
8979;DHT22;4524;51.364;5.448;2022-07-05T10:24:46;23.50;1.00
8979;DHT22;4524;51.364;5.448;2022-07-05T10:27:17;23.50;1.00
8979;DHT22;4524;51.364;5.448;2022-07-05T10:29:45;23.60;1.00
8979;DHT22;4524;51.364;5.448;2022-07-05T10:32:15;23.80;1.00
8979;DHT22;4524;51.364;5.448;2022-07-05T10:34:44;24.10;1.00
8979;DHT22;4524;51.364;5.448;2022-07-05T10:37:32;24.10;1.00
8979;DHT22;4524;51.364;5.448;2022-07-05T10:40:03;24.20;1.00
8979;DHT22;4524;51.364;5.448;2022-07-05T10:42:36;24.40;1.00
8979;DHT22;4524;51.364;5.448;2022-07-05T10:45:23;24.30;1.00
8979;DHT22;4524;51.364;5.448;2022-07-05T10:48:15;24.30;1.00
8979;DHT22;4524;51.364;5.448;2022-07-05T10:50:49;24.30;1.00
8979;DHT22;4524;51.364;5.448;2022-07-05T10:53:19;24.10;1.00
8979;DHT22;4524;51.364;5.448;2022-07-05T10:55:50;23.90;1.00
8979;DHT22;4524;51.364;5.448;2022-07-05T10:58:30;23.80;1.00
8979;DHT22;4524;51.364;5.448;2022-07-05T11:04:27;23.40;1.00
8979;DHT22;4524;51.364;5.448;2022-07-05T11:06:59;23.60;1.00
8979;DHT22;4524;51.364;5.448;2022-07-05T11:09:27;23.50;1.00
8979;DHT22;4524;51.364;5.448;2022-07-05T11:12:04;23.30;1.00
8979;DHT22;4524;51.364;5.448;2022-07-05T11:14:53;23.20;1.00
8979;DHT22;4524;51.364;5.448;2022-07-05T11:17:23;23.10;1.00
8979;DHT22;4524;51.364;5.448;2022-07-05T11:20:27;22.90;1.00
8979;DHT22;4524;51.364;5.448;2022-07-05T11:23:04;22.70;1.00
8979;DHT22;4524;51.364;5.448;2022-07-05T11:25:33;22.90;1.00
8979;DHT22;4524;51.364;5.448;2022-07-05T11:28:06;22.70;1.00
8979;DHT22;4524;51.364;5.448;2022-07-05T11:30:45;23.10;1.00
8979;DHT22;4524;51.364;5.448;2022-07-05T11:33:38;23.40;1.00
8979;DHT22;4524;51.364;5.448;2022-07-05T11:36:21;23.50;1.00
8979;DHT22;4524;51.364;5.448;2022-07-05T11:39:13;23.50;1.00
8979;DHT22;4524;51.364;5.448;2022-07-05T11:41:44;23.60;1.00
8979;DHT22;4524;51.364;5.448;2022-07-05T11:44:12;23.60;1.00
8979;DHT22;4524;51.364;5.448;2022-07-05T11:46:42;23.90;1.00
8979;DHT22;4524;51.364;5.448;2022-07-05T11:49:23;23.90;1.00
8979;DHT22;4524;51.364;5.448;2022-07-05T11:51:58;24.10;1.00
8979;DHT22;4524;51.364;5.448;2022-07-05T11:54:27;24.20;1.00
8979;DHT22;4524;51.364;5.448;2022-07-05T11:56:56;24.20;1.00
8979;DHT22;4524;51.364;5.448;2022-07-05T11:59:25;24.30;1.00
8979;DHT22;4524;51.364;5.448;2022-07-05T12:01:54;24.40;1.00
8979;DHT22;4524;51.364;5.448;2022-07-05T12:04:23;24.50;1.00
8979;DHT22;4524;51.364;5.448;2022-07-05T12:06:52;24.60;1.00
8979;DHT22;4524;51.364;5.448;2022-07-05T12:09:27;24.90;1.00
8979;DHT22;4524;51.364;5.448;2022-07-05T12:12:17;25.10;1.00
8979;DHT22;4524;51.364;5.448;2022-07-05T12:15:04;25.00;1.00
8979;DHT22;4524;51.364;5.448;2022-07-05T12:17:33;24.20;1.00
8979;DHT22;4524;51.364;5.448;2022-07-05T12:20:03;23.80;1.00
8979;DHT22;4524;51.364;5.448;2022-07-05T12:22:32;23.30;1.00
8979;DHT22;4524;51.364;5.448;2022-07-05T12:25:04;23.20;1.00
8979;DHT22;4524;51.364;5.448;2022-07-05T12:27:34;23.40;1.00
8979;DHT22;4524;51.364;5.448;2022-07-05T12:30:03;23.30;1.00
8979;DHT22;4524;51.364;5.448;2022-07-05T12:32:31;23.40;1.00
8979;DHT22;4524;51.364;5.448;2022-07-05T12:34:59;23.50;1.00
8979;DHT22;4524;51.364;5.448;2022-07-05T12:37:33;23.50;1.00
8979;DHT22;4524;51.364;5.448;2022-07-05T12:40:05;23.50;1.00
8979;DHT22;4524;51.364;5.448;2022-07-05T12:42:35;23.30;1.00
8979;DHT22;4524;51.364;5.448;2022-07-05T12:45:10;23.50;1.00
8979;DHT22;4524;51.364;5.448;2022-07-05T12:47:48;23.50;1.00
8979;DHT22;4524;51.364;5.448;2022-07-05T12:50:17;23.70;1.00
8979;DHT22;4524;51.364;5.448;2022-07-05T12:52:59;23.80;1.00
8979;DHT22;4524;51.364;5.448;2022-07-05T12:55:36;23.60;1.00
8979;DHT22;4524;51.364;5.448;2022-07-05T12:58:21;23.50;1.00
8979;DHT22;4524;51.364;5.448;2022-07-05T13:00:53;23.30;1.00
8979;DHT22;4524;51.364;5.448;2022-07-05T13:03:21;23.60;1.00
8979;DHT22;4524;51.364;5.448;2022-07-05T13:06:00;24.00;1.00
8979;DHT22;4524;51.364;5.448;2022-07-05T13:08:29;23.90;1.00
8979;DHT22;4524;51.364;5.448;2022-07-05T13:10:58;23.60;1.00
8979;DHT22;4524;51.364;5.448;2022-07-05T13:13:26;23.60;1.00
8979;DHT22;4524;51.364;5.448;2022-07-05T13:15:55;23.80;1.00
8979;DHT22;4524;51.364;5.448;2022-07-05T13:18:25;23.70;1.00
8979;DHT22;4524;51.364;5.448;2022-07-05T13:20:53;23.50;1.00
8979;DHT22;4524;51.364;5.448;2022-07-05T13:23:21;23.40;1.00
8979;DHT22;4524;51.364;5.448;2022-07-05T13:25:49;23.70;1.00
8979;DHT22;4524;51.364;5.448;2022-07-05T13:28:18;23.90;1.00
8979;DHT22;4524;51.364;5.448;2022-07-05T13:30:46;24.00;1.00
8979;DHT22;4524;51.364;5.448;2022-07-05T13:33:14;24.00;1.00
8979;DHT22;4524;51.364;5.448;2022-07-05T13:35:42;23.80;1.00
8979;DHT22;4524;51.364;5.448;2022-07-05T13:38:10;23.70;1.00
8979;DHT22;4524;51.364;5.448;2022-07-05T13:40:38;24.00;1.00
8979;DHT22;4524;51.364;5.448;2022-07-05T13:43:07;24.30;1.00
8979;DHT22;4524;51.364;5.448;2022-07-05T13:45:36;24.10;1.00
8979;DHT22;4524;51.364;5.448;2022-07-05T13:48:04;24.00;1.00
8979;DHT22;4524;51.364;5.448;2022-07-05T13:50:32;23.70;1.00
8979;DHT22;4524;51.364;5.448;2022-07-05T13:53:02;23.30;1.00
8979;DHT22;4524;51.364;5.448;2022-07-05T13:55:30;23.30;1.00
8979;DHT22;4524;51.364;5.448;2022-07-05T13:57:58;23.00;1.00
8979;DHT22;4524;51.364;5.448;2022-07-05T14:00:26;23.10;1.00
8979;DHT22;4524;51.364;5.448;2022-07-05T14:02:55;23.30;1.00
8979;DHT22;4524;51.364;5.448;2022-07-05T14:05:31;23.60;1.00
8979;DHT22;4524;51.364;5.448;2022-07-05T14:07:59;23.50;1.00
8979;DHT22;4524;51.364;5.448;2022-07-05T14:10:27;23.40;1.00
8979;DHT22;4524;51.364;5.448;2022-07-05T14:12:55;23.50;1.00
8979;DHT22;4524;51.364;5.448;2022-07-05T14:15:23;23.20;1.00
8979;DHT22;4524;51.364;5.448;2022-07-05T14:17:51;22.90;1.00
8979;DHT22;4524;51.364;5.448;2022-07-05T14:20:21;22.90;1.00
8979;DHT22;4524;51.364;5.448;2022-07-05T14:22:48;22.70;1.00
8979;DHT22;4524;51.364;5.448;2022-07-05T14:25:17;22.60;1.00
8979;DHT22;4524;51.364;5.448;2022-07-05T14:27:44;22.50;1.00
8979;DHT22;4524;51.364;5.448;2022-07-05T14:30:13;22.50;1.00
8979;DHT22;4524;51.364;5.448;2022-07-05T14:32:41;22.70;1.00
8979;DHT22;4524;51.364;5.448;2022-07-05T14:35:15;22.70;1.00
8979;DHT22;4524;51.364;5.448;2022-07-05T14:37:44;22.60;1.00
8979;DHT22;4524;51.364;5.448;2022-07-05T14:40:12;22.60;1.00
8979;DHT22;4524;51.364;5.448;2022-07-05T14:42:40;22.40;1.00
8979;DHT22;4524;51.364;5.448;2022-07-05T14:45:09;22.30;1.00
8979;DHT22;4524;51.364;5.448;2022-07-05T14:47:37;22.20;1.00
8979;DHT22;4524;51.364;5.448;2022-07-05T14:50:05;22.10;1.00
8979;DHT22;4524;51.364;5.448;2022-07-05T14:52:33;22.30;1.00
8979;DHT22;4524;51.364;5.448;2022-07-05T14:55:02;22.20;1.00
8979;DHT22;4524;51.364;5.448;2022-07-05T14:57:30;22.30;1.00
8979;DHT22;4524;51.364;5.448;2022-07-05T14:59:58;22.30;1.00
8979;DHT22;4524;51.364;5.448;2022-07-05T15:02:26;22.30;1.00
8979;DHT22;4524;51.364;5.448;2022-07-05T15:04:54;22.00;1.00
8979;DHT22;4524;51.364;5.448;2022-07-05T15:07:22;22.20;1.00
8979;DHT22;4524;51.364;5.448;2022-07-05T15:09:50;22.20;1.00
8979;DHT22;4524;51.364;5.448;2022-07-05T15:12:19;22.30;1.00
8979;DHT22;4524;51.364;5.448;2022-07-05T15:14:47;22.30;1.00
8979;DHT22;4524;51.364;5.448;2022-07-05T15:17:22;22.40;1.00
8979;DHT22;4524;51.364;5.448;2022-07-05T15:19:50;22.50;1.00
8979;DHT22;4524;51.364;5.448;2022-07-05T15:22:18;22.50;1.00
8979;DHT22;4524;51.364;5.448;2022-07-05T15:24:47;22.40;1.00
8979;DHT22;4524;51.364;5.448;2022-07-05T15:27:15;22.30;1.00
8979;DHT22;4524;51.364;5.448;2022-07-05T15:29:47;22.20;1.00
8979;DHT22;4524;51.364;5.448;2022-07-05T15:32:15;22.20;1.00
8979;DHT22;4524;51.364;5.448;2022-07-05T15:34:43;22.20;1.00
8979;DHT22;4524;51.364;5.448;2022-07-05T15:37:11;22.30;1.00
8979;DHT22;4524;51.364;5.448;2022-07-05T15:39:39;22.30;1.00
8979;DHT22;4524;51.364;5.448;2022-07-05T15:42:07;22.20;1.00
8979;DHT22;4524;51.364;5.448;2022-07-05T15:44:35;22.30;1.00
8979;DHT22;4524;51.364;5.448;2022-07-05T15:47:04;22.30;1.00
8979;DHT22;4524;51.364;5.448;2022-07-05T15:49:36;22.20;1.00
8979;DHT22;4524;51.364;5.448;2022-07-05T15:52:04;22.20;1.00
8979;DHT22;4524;51.364;5.448;2022-07-05T15:54:33;22.10;1.00
8979;DHT22;4524;51.364;5.448;2022-07-05T15:57:01;22.00;1.00
8979;DHT22;4524;51.364;5.448;2022-07-05T15:59:29;22.10;1.00
8979;DHT22;4524;51.364;5.448;2022-07-05T16:01:57;22.10;1.00
8979;DHT22;4524;51.364;5.448;2022-07-05T16:04:27;22.00;1.00
8979;DHT22;4524;51.364;5.448;2022-07-05T16:06:57;22.00;1.00
8979;DHT22;4524;51.364;5.448;2022-07-05T16:09:25;22.00;1.00
8979;DHT22;4524;51.364;5.448;2022-07-05T16:11:53;22.20;1.00
8979;DHT22;4524;51.364;5.448;2022-07-05T16:14:21;22.30;1.00
8979;DHT22;4524;51.364;5.448;2022-07-05T16:16:49;22.30;1.00
8979;DHT22;4524;51.364;5.448;2022-07-05T16:19:17;22.40;1.00
8979;DHT22;4524;51.364;5.448;2022-07-05T16:21:47;22.40;1.00
8979;DHT22;4524;51.364;5.448;2022-07-05T16:24:17;22.40;1.00
8979;DHT22;4524;51.364;5.448;2022-07-05T16:27:04;22.40;1.00
8979;DHT22;4524;51.364;5.448;2022-07-05T16:29:33;22.10;1.00
8979;DHT22;4524;51.364;5.448;2022-07-05T16:32:01;21.80;1.00
8979;DHT22;4524;51.364;5.448;2022-07-05T16:34:29;21.90;1.00
8979;DHT22;4524;51.364;5.448;2022-07-05T16:36:59;21.50;1.00